Time;durP1;ratioP1;P1;durP2;ratioP2;P2;SDS_P1;SDS_P2;PMS_P1;PMS_P2;Temp;Humidity;BMP_temperature;BMP_pressure;BME280_temperature;BME280_humidity;BME280_pressure;Samples;Min_cycle;Max_cycle;Signal;HPM_P1;HPM_P2
2023/04/17 00:01:36;;;;;;;;;1.00;1.00;;;;;;;;5209622;28;8817;-69
2023/04/17 00:04:11;;;;;;;;;0.40;0.40;;;;;;;;5227705;28;8777;-69
2023/04/17 00:06:43;;;;;;;;;1.00;1.00;;;;;;;;5247792;28;8787;-69
2023/04/17 00:09:15;;;;;;;;;1.00;1.00;;;;;;;;5247516;28;9560;-69
2023/04/17 00:12:04;;;;;;;;;0.00;0.00;;;;;;;;5248393;28;8819;-69
2023/04/17 00:14:54;;;;;;;;;1.60;1.60;;;;;;;;5247833;28;8786;-69
2023/04/17 00:17:25;;;;;;;;;2.00;2.00;;;;;;;;5247093;28;8867;-69
2023/04/17 00:19:56;;;;;;;;;4.60;4.60;;;;;;;;5224834;28;11538;-69
2023/04/17 00:22:27;;;;;;;;;2.80;2.80;;;;;;;;5227393;28;8828;-69
2023/04/17 00:24:58;;;;;;;;;4.20;4.20;;;;;;;;5227115;28;8801;-69
2023/04/17 00:27:30;;;;;;;;;3.40;3.40;;;;;;;;5224558;28;8832;-69
2023/04/17 00:30:19;;;;;;;;;2.00;2.00;;;;;;;;5226531;28;8824;-69
2023/04/17 00:33:09;;;;;;;;;1.00;1.00;;;;;;;;5226068;28;9517;-68
2023/04/17 00:35:59;;;;;;;;;1.40;1.40;;;;;;;;5236291;28;8790;-68
2023/04/17 00:38:30;;;;;;;;;1.20;1.20;;;;;;;;5246793;28;8779;-68
2023/04/17 00:41:01;;;;;;;;;0.00;0.00;;;;;;;;5230321;28;8896;-68
2023/04/17 00:43:32;;;;;;;;;1.60;1.60;;;;;;;;5230433;28;8813;-68
2023/04/17 00:46:04;;;;;;;;;3.00;3.00;;;;;;;;5226078;28;8813;-67
2023/04/17 00:48:36;;;;;;;;;4.20;3.60;;;;;;;;5209900;28;11400;-68
2023/04/17 00:51:07;;;;;;;;;3.00;3.00;;;;;;;;5211080;28;8830;-68
2023/04/17 00:53:38;;;;;;;;;3.00;3.00;;;;;;;;5247780;28;8803;-68
2023/04/17 00:56:10;;;;;;;;;3.40;3.40;;;;;;;;5238096;28;8924;-68
2023/04/17 00:58:41;;;;;;;;;1.80;1.60;;;;;;;;5225902;28;8774;-68
2023/04/17 01:01:12;;;;;;;;;1.80;1.80;;;;;;;;5214335;28;8856;-68
2023/04/17 01:03:43;;;;;;;;;0.00;0.00;;;;;;;;5209288;28;8789;-68
2023/04/17 01:06:14;;;;;;;;;1.60;1.60;;;;;;;;5242081;28;8842;-67
2023/04/17 01:09:03;;;;;;;;;1.00;1.00;;;;;;;;5242424;28;9563;-68
2023/04/17 01:11:53;;;;;;;;;3.00;2.00;;;;;;;;5226769;28;8790;-67
2023/04/17 01:14:24;;;;;;;;;10.40;10.40;;;;;;;;5242137;28;8781;-67
2023/04/17 01:16:55;;;;;;;;;24.00;21.80;;;;;;;;5208570;28;8826;-67
2023/04/17 01:19:27;;;;;;;;;10.40;10.00;;;;;;;;5225615;28;8911;-67
2023/04/17 01:21:58;;;;;;;;;8.00;8.00;;;;;;;;5208717;28;8805;-67
2023/04/17 01:24:29;;;;;;;;;6.00;4.75;;;;;;;;5225454;28;8773;-67
2023/04/17 01:27:01;;;;;;;;;3.80;3.80;;;;;;;;5225256;28;8800;-67
2023/04/17 01:29:32;;;;;;;;;6.00;6.00;;;;;;;;5225351;28;8863;-68
2023/04/17 01:32:22;;;;;;;;;3.00;2.60;;;;;;;;5225427;28;9564;-68
2023/04/17 01:34:54;;;;;;;;;1.00;1.00;;;;;;;;5236382;28;8888;-68
2023/04/17 01:37:25;;;;;;;;;2.00;2.00;;;;;;;;5243831;28;8799;-68
2023/04/17 01:39:57;;;;;;;;;2.00;2.00;;;;;;;;5208225;28;8781;-68
2023/04/17 01:42:30;;;;;;;;;5.00;5.00;;;;;;;;5225331;28;8822;-68
2023/04/17 01:45:01;;;;;;;;;5.00;5.00;;;;;;;;5225057;28;8773;-67
2023/04/17 01:47:34;;;;;;;;;5.80;5.80;;;;;;;;5224739;28;8812;-67
2023/04/17 01:50:07;;;;;;;;;38.00;36.50;;;;;;;;5224509;28;8912;-67
2023/04/17 01:52:38;;;;;;;;;25.40;24.40;;;;;;;;5229241;28;11534;-68
2023/04/17 01:55:10;;;;;;;;;13.80;13.80;;;;;;;;5246561;28;8822;-68
2023/04/17 01:57:41;;;;;;;;;14.00;14.00;;;;;;;;5229602;28;8793;-67
2023/04/17 02:00:30;;;;;;;;;11.00;11.00;;;;;;;;5210350;28;8812;-67
2023/04/17 02:03:19;;;;;;;;;5.80;5.80;;;;;;;;5211172;28;9536;-67
2023/04/17 02:05:53;;;;;;;;;3.60;3.40;;;;;;;;5207720;28;8804;-68
2023/04/17 02:08:25;;;;;;;;;10.00;10.00;;;;;;;;5225450;28;8794;-70
2023/04/17 02:10:56;;;;;;;;;13.20;13.20;;;;;;;;5230341;28;8923;-69
2023/04/17 02:13:27;;;;;;;;;14.00;14.00;;;;;;;;5224140;28;9520;-71
2023/04/17 02:15:58;;;;;;;;;7.80;7.80;;;;;;;;5233185;28;8818;-71
2023/04/17 02:18:53;;;;;;;;;15.20;15.20;;;;;;;;5227375;28;8910;-68
2023/04/17 02:21:42;;;;;;;;;11.40;11.20;;;;;;;;5225945;28;8958;-68
2023/04/17 02:24:13;;;;;;;;;12.20;12.20;;;;;;;;5207748;28;9492;-69
2023/04/17 02:26:45;;;;;;;;;8.00;8.00;;;;;;;;5224227;28;8834;-70
2023/04/17 02:29:17;;;;;;;;;10.00;10.00;;;;;;;;5224041;28;8851;-69
2023/04/17 02:31:48;;;;;;;;;15.00;15.00;;;;;;;;5222752;28;8837;-71
2023/04/17 02:34:37;;;;;;;;;34.80;34.80;;;;;;;;5210081;28;8891;-69
2023/04/17 02:37:27;;;;;;;;;78.60;61.60;;;;;;;;5225764;28;8798;-70
2023/04/17 02:39:59;;;;;;;;;74.00;56.80;;;;;;;;5223928;28;8794;-69
2023/04/17 02:42:30;;;;;;;;;66.80;55.00;;;;;;;;5229412;28;8843;-72
2023/04/17 02:45:02;;;;;;;;;73.75;57.00;;;;;;;;5218586;28;8795;-72
2023/04/17 02:47:34;;;;;;;;;66.60;52.80;;;;;;;;5207290;28;9739;-71
2023/04/17 02:50:07;;;;;;;;;59.00;50.20;;;;;;;;5221845;28;8797;-69
2023/04/17 02:52:46;;;;;;;;;46.60;40.80;;;;;;;;5239527;28;8809;-70
2023/04/17 02:55:17;;;;;;;;;60.00;47.20;;;;;;;;5224120;28;8821;-71
2023/04/17 02:57:48;;;;;;;;;71.40;57.40;;;;;;;;5209991;28;8872;-71
2023/04/17 03:00:19;;;;;;;;;72.80;58.80;;;;;;;;5245805;28;8765;-71
2023/04/17 03:02:51;;;;;;;;;68.60;55.20;;;;;;;;5244313;28;8799;-71
2023/04/17 03:05:22;;;;;;;;;31.80;31.00;;;;;;;;5244650;28;9513;-72
2023/04/17 03:07:56;;;;;;;;;42.20;39.00;;;;;;;;5206935;28;8814;-72
2023/04/17 03:10:46;;;;;;;;;51.40;44.60;;;;;;;;5210020;28;8778;-70
2023/04/17 03:13:17;;;;;;;;;34.20;31.80;;;;;;;;5223870;28;9582;-70
2023/04/17 03:15:48;;;;;;;;;37.00;36.80;;;;;;;;5227710;28;8766;-69
2023/04/17 03:18:19;;;;;;;;;28.20;28.20;;;;;;;;5228899;28;8796;-69
2023/04/17 03:20:51;;;;;;;;;31.20;30.00;;;;;;;;5227460;28;8829;-69
2023/04/17 03:23:22;;;;;;;;;25.00;24.40;;;;;;;;5227270;28;8785;-70
2023/04/17 03:26:13;;;;;;;;;24.80;22.80;;;;;;;;5239016;28;8818;-69
2023/04/17 03:28:44;;;;;;;;;25.40;24.20;;;;;;;;5248600;28;8771;-69
2023/04/17 03:31:15;;;;;;;;;24.80;24.20;;;;;;;;5231770;28;8811;-69
2023/04/17 03:33:46;;;;;;;;;26.80;25.60;;;;;;;;5225834;28;8883;-69
2023/04/17 03:36:17;;;;;;;;;18.00;17.80;;;;;;;;5210561;28;8774;-69
2023/04/17 03:38:48;;;;;;;;;12.20;12.20;;;;;;;;5227286;28;8766;-69
2023/04/17 03:41:38;;;;;;;;;15.80;15.80;;;;;;;;5227395;28;8810;-69
2023/04/17 03:44:09;;;;;;;;;19.40;18.60;;;;;;;;5232609;28;8902;-69
2023/04/17 03:46:40;;;;;;;;;12.60;12.60;;;;;;;;5214600;28;8771;-69
2023/04/17 03:49:11;;;;;;;;;14.80;14.80;;;;;;;;5247693;28;8783;-69
2023/04/17 03:51:45;;;;;;;;;13.00;13.00;;;;;;;;5231402;28;8909;-78
2023/04/17 03:54:22;;;;;;;;;13.00;13.00;;;;;;;;5232017;28;9580;-77
2023/04/17 03:56:56;;;;;;;;;12.00;12.00;;;;;;;;5231594;28;8779;-77
2023/04/17 03:59:32;;;;;;;;;10.00;10.00;;;;;;;;5205045;28;8830;-78
2023/04/17 04:02:06;;;;;;;;;10.00;10.00;;;;;;;;5210263;28;8845;-77
2023/04/17 04:04:40;;;;;;;;;5.00;4.40;;;;;;;;5194220;28;8777;-77
2023/04/17 04:07:16;;;;;;;;;10.40;9.60;;;;;;;;5226703;28;8801;-77
2023/04/17 04:09:49;;;;;;;;;9.80;9.20;;;;;;;;5210578;28;8809;-77
2023/04/17 04:12:41;;;;;;;;;4.00;4.00;;;;;;;;5212700;28;8809;-77
2023/04/17 04:15:13;;;;;;;;;3.00;3.00;;;;;;;;5210225;28;8777;-78
2023/04/17 04:17:47;;;;;;;;;1.40;1.40;;;;;;;;5210568;28;8818;-78
2023/04/17 04:20:21;;;;;;;;;7.80;7.80;;;;;;;;5210564;28;8858;-78
2023/04/17 04:22:58;;;;;;;;;6.80;4.20;;;;;;;;5211970;28;8860;-77
2023/04/17 04:25:31;;;;;;;;;5.20;4.80;;;;;;;;5239410;28;8826;-78
2023/04/17 04:28:23;;;;;;;;;6.20;6.20;;;;;;;;5245906;28;8790;-77
2023/04/17 04:30:57;;;;;;;;;6.00;4.80;;;;;;;;5213923;28;8914;-77
2023/04/17 04:33:34;;;;;;;;;8.80;8.80;;;;;;;;5231090;28;8929;-78
2023/04/17 04:36:08;;;;;;;;;3.00;3.00;;;;;;;;5230725;28;8795;-79
2023/04/17 04:38:41;;;;;;;;;8.60;8.60;;;;;;;;5229152;28;9526;-79
2023/04/17 04:41:24;;;;;;;;;4.20;4.20;;;;;;;;5210328;28;8822;-80
2023/04/17 04:44:00;;;;;;;;;4.60;4.60;;;;;;;;5209988;28;8789;-79
2023/04/17 04:46:33;;;;;;;;;3.80;3.80;;;;;;;;5193294;28;8932;-80
2023/04/17 04:49:25;;;;;;;;;4.00;4.00;;;;;;;;5212064;28;8797;-79
2023/04/17 04:51:57;;;;;;;;;4.60;4.60;;;;;;;;5209694;28;8789;-79
2023/04/17 04:54:36;;;;;;;;;2.00;2.00;;;;;;;;5214562;28;9008;-80
2023/04/17 04:57:09;;;;;;;;;4.00;4.00;;;;;;;;5208046;28;8882;-81
2023/04/17 04:59:44;;;;;;;;;8.80;8.80;;;;;;;;5202582;28;8887;-79
2023/04/17 05:02:41;;;;;;;;;2.00;2.00;;;;;;;;5211534;28;8825;-80
2023/04/17 05:05:15;;;;;;;;;4.40;4.40;;;;;;;;5210010;28;8837;-78
2023/04/17 05:07:48;;;;;;;;;5.20;5.20;;;;;;;;5213152;28;8941;-79
2023/04/17 05:10:39;;;;;;;;;4.60;4.60;;;;;;;;5238085;28;8813;-79
2023/04/17 05:13:12;;;;;;;;;3.00;3.00;;;;;;;;5193792;28;8904;-78
2023/04/17 05:15:44;;;;;;;;;4.00;4.00;;;;;;;;5199619;28;8801;-78
2023/04/17 05:18:36;;;;;;;;;5.40;5.20;;;;;;;;5216683;28;9596;-79
2023/04/17 05:21:08;;;;;;;;;6.00;6.00;;;;;;;;5229410;28;8821;-72
2023/04/17 05:23:41;;;;;;;;;10.20;10.20;;;;;;;;5225154;28;8801;-79
2023/04/17 05:26:13;;;;;;;;;6.20;6.20;;;;;;;;5225291;28;8781;-79
2023/04/17 05:28:44;;;;;;;;;10.60;10.60;;;;;;;;5208546;28;8786;-79
2023/04/17 05:31:20;;;;;;;;;5.80;5.40;;;;;;;;5232306;28;8788;-78
2023/04/17 05:33:52;;;;;;;;;9.60;9.60;;;;;;;;5249951;28;8827;-78
2023/04/17 05:36:25;;;;;;;;;4.20;4.20;;;;;;;;5214311;28;8806;-78
2023/04/17 05:39:00;;;;;;;;;4.00;4.00;;;;;;;;5209236;28;8867;-78
2023/04/17 05:41:34;;;;;;;;;7.60;7.60;;;;;;;;5208658;28;8809;-78
2023/04/17 05:44:06;;;;;;;;;2.40;2.40;;;;;;;;5208595;28;8840;-78
2023/04/17 05:46:38;;;;;;;;;2.60;2.60;;;;;;;;5225216;28;8778;-78
2023/04/17 05:49:09;;;;;;;;;80.40;58.40;;;;;;;;5225025;28;8777;-77
2023/04/17 05:51:41;;;;;;;;;214.50;146.75;;;;;;;;5224725;28;8790;-77
2023/04/17 05:54:13;;;;;;;;;85.80;62.00;;;;;;;;5228914;28;10541;-77
2023/04/17 05:56:46;;;;;;;;;56.80;47.60;;;;;;;;5223724;28;9493;-77
2023/04/17 05:59:18;;;;;;;;;9.80;9.00;;;;;;;;5237793;28;8786;-77
2023/04/17 06:01:51;;;;;;;;;2.40;2.40;;;;;;;;5222588;28;8839;-77
2023/04/17 06:04:25;;;;;;;;;3.00;3.00;;;;;;;;5243900;28;8814;-77
2023/04/17 06:06:57;;;;;;;;;3.80;3.80;;;;;;;;5229214;28;8767;-76
2023/04/17 06:09:29;;;;;;;;;2.00;2.00;;;;;;;;5196688;28;8802;-77
2023/04/17 06:12:00;;;;;;;;;9.20;9.20;;;;;;;;5230509;28;8794;-77
2023/04/17 06:14:32;;;;;;;;;9.40;9.40;;;;;;;;5224911;28;8797;-77
2023/04/17 06:17:07;;;;;;;;;5.40;5.40;;;;;;;;5210272;28;8791;-77
2023/04/17 06:19:39;;;;;;;;;2.00;2.00;;;;;;;;5235699;28;8803;-78
2023/04/17 06:22:11;;;;;;;;;2.00;2.00;;;;;;;;5215743;28;8839;-78
2023/04/17 06:24:43;;;;;;;;;4.00;3.00;;;;;;;;5224573;28;8810;-79
2023/04/17 06:27:15;;;;;;;;;4.25;4.25;;;;;;;;5224121;28;8789;-71
2023/04/17 06:29:47;;;;;;;;;1.50;1.50;;;;;;;;5233919;28;8798;-78
2023/04/17 06:32:19;;;;;;;;;3.50;3.50;;;;;;;;5207785;28;8782;-78
2023/04/17 06:34:52;;;;;;;;;1.00;1.00;;;;;;;;5207346;28;8828;-77
2023/04/17 06:37:35;;;;;;;;;2.00;2.00;;;;;;;;5209241;28;8924;-78
2023/04/17 06:40:07;;;;;;;;;3.25;3.25;;;;;;;;5210490;28;9594;-77
2023/04/17 06:42:39;;;;;;;;;3.25;3.25;;;;;;;;5214212;28;8822;-79
2023/04/17 06:45:16;;;;;;;;;5.00;5.00;;;;;;;;5230681;28;8819;-78
2023/04/17 06:47:48;;;;;;;;;3.40;3.40;;;;;;;;5226324;28;9494;-78
2023/04/17 06:50:23;;;;;;;;;0.75;0.75;;;;;;;;5216706;28;8813;-79
2023/04/17 06:52:55;;;;;;;;;2.00;2.00;;;;;;;;5198986;28;8798;-78
2023/04/17 06:55:26;;;;;;;;;2.50;2.50;;;;;;;;5215389;28;8984;-72
2023/04/17 06:57:58;;;;;;;;;3.25;3.25;;;;;;;;5230279;28;8835;-72
2023/04/17 07:00:29;;;;;;;;;4.50;3.00;;;;;;;;5235708;28;8914;-72
2023/04/17 07:03:18;;;;;;;;;18.80;18.80;;;;;;;;5230964;28;8951;-72
2023/04/17 07:05:49;;;;;;;;;8.60;8.60;;;;;;;;5228963;28;8805;-71
2023/04/17 07:08:21;;;;;;;;;3.50;3.50;;;;;;;;5211708;28;8805;-72
2023/04/17 07:10:53;;;;;;;;;5.20;5.20;;;;;;;;5238630;28;8891;-69
2023/04/17 07:13:25;;;;;;;;;2.50;2.50;;;;;;;;5245857;28;8848;-71
2023/04/17 07:15:56;;;;;;;;;1.00;1.00;;;;;;;;5212150;28;8814;-71
2023/04/17 07:18:30;;;;;;;;;4.00;3.75;;;;;;;;5236595;28;8803;-69
2023/04/17 07:21:02;;;;;;;;;1.00;1.00;;;;;;;;5233514;28;8902;-69
2023/04/17 07:23:33;;;;;;;;;2.00;2.00;;;;;;;;5244949;28;8795;-69
2023/04/17 07:26:04;;;;;;;;;2.50;2.50;;;;;;;;5241485;28;8800;-69
2023/04/17 07:28:35;;;;;;;;;2.00;2.00;;;;;;;;5239308;28;8779;-68
2023/04/17 07:31:27;;;;;;;;;2.75;2.75;;;;;;;;5235601;28;8921;-69
2023/04/17 07:33:58;;;;;;;;;2.00;2.00;;;;;;;;5230337;28;8826;-70
2023/04/17 07:36:29;;;;;;;;;0.67;0.67;;;;;;;;5215015;28;8806;-68
2023/04/17 07:39:00;;;;;;;;;2.33;2.33;;;;;;;;5240333;28;8798;-69
2023/04/17 07:41:31;;;;;;;;;1.00;1.00;;;;;;;;5212982;28;8997;-69
2023/04/17 07:44:21;;;;;;;;;0.75;0.75;;;;;;;;5219972;28;8785;-70
2023/04/17 07:46:52;;;;;;;;;5.00;5.00;;;;;;;;5243000;28;8848;-70
2023/04/17 07:49:22;;;;;;;;;1.00;1.00;;;;;;;;5225374;28;8794;-69
2023/04/17 07:51:54;;;;;;;;;0.00;0.00;;;;;;;;5223675;28;11413;-70
2023/04/17 07:54:25;;;;;;;;;2.75;2.75;;;;;;;;5230026;28;8818;-70
2023/04/17 07:57:01;;;;;;;;;1.00;1.00;;;;;;;;5216800;28;9549;-70
2023/04/17 07:59:32;;;;;;;;;1.25;1.25;;;;;;;;5243758;28;8795;-70
2023/04/17 08:02:04;;;;;;;;;1.25;1.25;;;;;;;;5234002;28;8827;-70
2023/04/17 08:04:36;;;;;;;;;0.00;0.00;;;;;;;;5229166;28;8801;-70
2023/04/17 08:07:09;;;;;;;;;1.25;1.25;;;;;;;;5224478;28;8817;-70
2023/04/17 08:09:41;;;;;;;;;8.20;8.20;;;;;;;;5226424;28;9520;-69
2023/04/17 08:12:12;;;;;;;;;2.00;2.00;;;;;;;;5211812;28;8815;-70
2023/04/17 08:14:43;;;;;;;;;2.00;2.00;;;;;;;;5228849;28;8821;-69
2023/04/17 08:17:18;;;;;;;;;2.00;2.00;;;;;;;;5235622;28;8799;-69
2023/04/17 08:19:52;;;;;;;;;1.00;1.00;;;;;;;;5208151;28;8870;-70
2023/04/17 08:22:27;;;;;;;;;1.00;1.00;;;;;;;;5207982;28;8821;-69
2023/04/17 08:24:58;;;;;;;;;0.50;0.50;;;;;;;;5236655;28;8809;-69
2023/04/17 08:27:30;;;;;;;;;1.00;1.00;;;;;;;;5226249;28;8813;-69
2023/04/17 08:30:02;;;;;;;;;1.50;1.50;;;;;;;;5237897;28;8795;-69
2023/04/17 08:32:41;;;;;;;;;0.00;0.00;;;;;;;;5242273;28;8944;-70
2023/04/17 08:35:13;;;;;;;;;3.00;3.00;;;;;;;;5243684;28;8842;-70
2023/04/17 08:37:46;;;;;;;;;2.50;2.50;;;;;;;;5234601;28;8793;-70
2023/04/17 08:40:20;;;;;;;;;0.75;0.75;;;;;;;;5245125;28;8807;-70
2023/04/17 08:42:51;;;;;;;;;1.75;1.75;;;;;;;;5252497;28;8824;-70
2023/04/17 08:45:23;;;;;;;;;1.50;1.50;;;;;;;;5267589;28;8865;-70
2023/04/17 08:47:54;;;;;;;;;4.00;4.00;;;;;;;;5258839;28;8783;-69
2023/04/17 08:50:25;;;;;;;;;3.33;3.33;;;;;;;;5247762;28;8864;-70
2023/04/17 08:52:56;;;;;;;;;0.50;0.50;;;;;;;;5246567;28;8833;-70
2023/04/17 08:55:31;;;;;;;;;1.00;1.00;;;;;;;;5246411;28;8799;-71
2023/04/17 08:58:03;;;;;;;;;1.50;1.00;;;;;;;;5246591;28;8848;-71
2023/04/17 09:00:35;;;;;;;;;4.75;4.75;;;;;;;;5246735;28;8904;-79
2023/04/17 09:03:07;;;;;;;;;1.50;1.50;;;;;;;;5213262;28;9650;-78
2023/04/17 09:05:57;;;;;;;;;6.75;6.75;;;;;;;;5232563;28;9557;-78
2023/04/17 09:08:28;;;;;;;;;1.25;1.25;;;;;;;;5213237;28;8803;-78
2023/04/17 09:11:18;;;;;;;;;0.00;0.00;;;;;;;;5217796;28;8945;-78
2023/04/17 09:13:49;;;;;;;;;1.00;1.00;;;;;;;;5208857;28;8817;-78
2023/04/17 09:16:23;;;;;;;;;1.25;1.25;;;;;;;;5192360;28;8778;-77
2023/04/17 09:19:04;;;;;;;;;3.00;3.00;;;;;;;;5202529;28;8801;-78
2023/04/17 09:21:35;;;;;;;;;3.00;3.00;;;;;;;;5209004;28;8833;-79
2023/04/17 09:24:08;;;;;;;;;1.00;1.00;;;;;;;;5209001;28;8883;-78
2023/04/17 09:26:39;;;;;;;;;1.00;1.00;;;;;;;;5208800;28;8781;-78
2023/04/17 09:29:12;;;;;;;;;1.00;1.00;;;;;;;;5208783;28;8804;-78
2023/04/17 09:31:43;;;;;;;;;1.00;1.00;;;;;;;;5208588;28;8798;-78
2023/04/17 09:34:15;;;;;;;;;0.50;0.50;;;;;;;;5191965;28;8809;-78
2023/04/17 09:36:46;;;;;;;;;3.00;3.00;;;;;;;;5192188;28;8813;-78
2023/04/17 09:39:23;;;;;;;;;0.50;0.50;;;;;;;;5192154;28;8796;-78
2023/04/17 09:42:12;;;;;;;;;1.00;1.00;;;;;;;;5211148;28;8822;-78
2023/04/17 09:44:43;;;;;;;;;0.25;0.25;;;;;;;;5213585;28;8809;-77
2023/04/17 09:47:16;;;;;;;;;1.50;1.50;;;;;;;;5229268;28;8850;-78
2023/04/17 09:49:49;;;;;;;;;1.50;1.50;;;;;;;;5228996;28;8807;-78
2023/04/17 09:52:22;;;;;;;;;7.25;7.25;;;;;;;;5228905;28;8791;-78
2023/04/17 09:54:54;;;;;;;;;2.00;2.00;;;;;;;;5245528;28;8822;-78
2023/04/17 09:57:25;;;;;;;;;0.75;0.75;;;;;;;;5228926;28;8799;-78
2023/04/17 10:00:00;;;;;;;;;1.00;1.00;;;;;;;;5212303;28;8792;-83
2023/04/17 10:02:31;;;;;;;;;1.00;1.00;;;;;;;;5199431;28;8821;-78
2023/04/17 10:05:03;;;;;;;;;0.25;0.25;;;;;;;;5192082;28;8936;-77
2023/04/17 10:07:35;;;;;;;;;6.25;5.50;;;;;;;;5208228;28;8778;-78
2023/04/17 10:10:09;;;;;;;;;3.50;3.50;;;;;;;;5192408;28;8823;-77
2023/04/17 10:12:41;;;;;;;;;1.00;1.00;;;;;;;;5191476;28;8797;-77
2023/04/17 10:15:13;;;;;;;;;1.50;1.50;;;;;;;;5208326;28;9520;-78
2023/04/17 10:17:45;;;;;;;;;2.00;2.00;;;;;;;;5208090;28;8870;-79
2023/04/17 10:20:16;;;;;;;;;2.00;2.00;;;;;;;;5224470;28;8819;-79
2023/04/17 10:22:55;;;;;;;;;1.00;1.00;;;;;;;;5224265;28;9003;-71
2023/04/17 10:25:27;;;;;;;;;1.50;1.50;;;;;;;;5226197;28;8823;-71
2023/04/17 10:27:59;;;;;;;;;2.00;2.00;;;;;;;;5245116;28;8836;-68
2023/04/17 10:30:49;;;;;;;;;2.50;2.50;;;;;;;;5228620;28;8806;-71
2023/04/17 10:33:23;;;;;;;;;2.75;2.75;;;;;;;;5240568;28;8782;-72
2023/04/17 10:35:54;;;;;;;;;2.00;2.00;;;;;;;;5225746;28;8890;-73
2023/04/17 10:38:33;;;;;;;;;2.33;2.33;;;;;;;;5224358;28;8793;-72
2023/04/17 10:41:07;;;;;;;;;4.00;4.00;;;;;;;;5224182;28;9406;-72
2023/04/17 10:43:40;;;;;;;;;2.00;2.00;;;;;;;;5224197;28;8971;-72
2023/04/17 10:46:11;;;;;;;;;1.00;1.00;;;;;;;;5234087;28;8791;-72
2023/04/17 10:48:51;;;;;;;;;4.00;4.00;;;;;;;;5228374;28;8984;-72
2023/04/17 10:51:22;;;;;;;;;10.75;10.75;;;;;;;;5246095;28;8783;-72
2023/04/17 10:54:14;;;;;;;;;9.00;9.00;;;;;;;;5244806;28;8802;-72
2023/04/17 10:56:46;;;;;;;;;4.00;4.00;;;;;;;;5246262;28;8925;-70
2023/04/17 10:59:18;;;;;;;;;1.75;1.75;;;;;;;;5211610;28;8760;-71
2023/04/17 11:01:49;;;;;;;;;1.00;1.00;;;;;;;;5228183;28;8856;-71
2023/04/17 11:04:22;;;;;;;;;4.75;4.75;;;;;;;;5224950;28;8770;-71
2023/04/17 11:06:54;;;;;;;;;3.50;3.50;;;;;;;;5225616;28;8793;-70
2023/04/17 11:09:27;;;;;;;;;3.00;3.00;;;;;;;;5225276;28;8770;-69
2023/04/17 11:12:02;;;;;;;;;2.00;2.00;;;;;;;;5223777;28;8943;-69
2023/04/17 11:14:33;;;;;;;;;1.00;1.00;;;;;;;;5225784;28;8858;-71
2023/04/17 11:17:07;;;;;;;;;1.67;1.67;;;;;;;;5245951;28;8767;-70
2023/04/17 11:19:39;;;;;;;;;2.00;2.00;;;;;;;;5234403;28;11045;-70
2023/04/17 11:22:32;;;;;;;;;2.50;2.50;;;;;;;;5224118;28;8825;-70
2023/04/17 11:25:05;;;;;;;;;5.00;5.00;;;;;;;;5223925;28;8778;-71
2023/04/17 11:27:36;;;;;;;;;3.75;3.75;;;;;;;;5223715;28;8813;-70
2023/04/17 11:30:07;;;;;;;;;4.00;4.00;;;;;;;;5223806;28;8930;-69
2023/04/17 11:32:42;;;;;;;;;2.00;2.00;;;;;;;;5224912;28;8786;-70
2023/04/17 11:35:13;;;;;;;;;2.75;2.75;;;;;;;;5242376;28;8870;-70
2023/04/17 11:38:03;;;;;;;;;2.00;2.00;;;;;;;;5227145;28;8898;-70
2023/04/17 11:40:34;;;;;;;;;1.75;1.75;;;;;;;;5227992;28;8857;-70
2023/04/17 11:43:08;;;;;;;;;1.25;1.25;;;;;;;;5247743;28;8807;-70
2023/04/17 11:45:58;;;;;;;;;2.50;2.50;;;;;;;;5233948;28;8767;-69
2023/04/17 11:48:32;;;;;;;;;3.00;3.00;;;;;;;;5249434;28;8794;-69
2023/04/17 11:51:04;;;;;;;;;3.25;3.25;;;;;;;;5247799;28;8918;-68
2023/04/17 11:53:35;;;;;;;;;3.00;3.00;;;;;;;;5248997;28;8812;-69
2023/04/17 11:56:17;;;;;;;;;1.50;1.50;;;;;;;;5228330;28;9494;-69
2023/04/17 11:58:52;;;;;;;;;3.25;3.25;;;;;;;;5247940;28;8767;-69
2023/04/17 12:01:24;;;;;;;;;2.00;2.00;;;;;;;;5247826;28;8815;-70
2023/04/17 12:03:56;;;;;;;;;2.00;2.00;;;;;;;;5248732;28;8779;-69
2023/04/17 12:06:37;;;;;;;;;2.50;2.50;;;;;;;;5248886;28;8906;-69
2023/04/17 12:09:17;;;;;;;;;2.75;2.75;;;;;;;;5248698;28;8786;-70
2023/04/17 12:11:48;;;;;;;;;2.25;2.25;;;;;;;;5222154;28;8817;-69
2023/04/17 12:14:19;;;;;;;;;3.50;3.50;;;;;;;;5228804;28;8804;-70
2023/04/17 12:16:50;;;;;;;;;3.50;3.50;;;;;;;;5247585;28;8779;-69
2023/04/17 12:19:24;;;;;;;;;4.50;4.50;;;;;;;;5230630;28;8925;-69
2023/04/17 12:21:55;;;;;;;;;4.75;4.75;;;;;;;;5247205;28;9019;-69
2023/04/17 12:24:26;;;;;;;;;3.00;3.00;;;;;;;;5214059;28;8787;-69
2023/04/17 12:27:16;;;;;;;;;2.00;2.00;;;;;;;;5248497;28;8763;-69
2023/04/17 12:29:47;;;;;;;;;8.50;8.25;;;;;;;;5222562;28;9532;-69
2023/04/17 12:32:18;;;;;;;;;19.40;19.40;;;;;;;;5227664;28;8821;-69
2023/04/17 12:34:49;;;;;;;;;13.33;13.33;;;;;;;;5214710;28;8850;-71
2023/04/17 12:37:20;;;;;;;;;4.00;4.00;;;;;;;;5225121;28;11240;-69
2023/04/17 12:40:10;;;;;;;;;4.00;4.00;;;;;;;;5226557;28;8774;-69
2023/04/17 12:42:41;;;;;;;;;5.00;5.00;;;;;;;;5209847;28;8825;-69
2023/04/17 12:45:13;;;;;;;;;5.00;5.00;;;;;;;;5226124;28;8774;-69
2023/04/17 12:48:03;;;;;;;;;4.00;4.00;;;;;;;;5225606;28;10830;-69
2023/04/17 12:50:39;;;;;;;;;4.00;4.00;;;;;;;;5209459;28;8785;-69
2023/04/17 12:53:11;;;;;;;;;4.75;4.75;;;;;;;;5226295;28;8801;-69
2023/04/17 12:55:42;;;;;;;;;2.50;2.50;;;;;;;;5229503;28;9516;-70
2023/04/17 12:58:13;;;;;;;;;3.00;3.00;;;;;;;;5239999;28;8798;-69
2023/04/17 13:00:44;;;;;;;;;5.67;5.67;;;;;;;;5246995;28;8771;-70
2023/04/17 13:03:34;;;;;;;;;2.00;2.00;;;;;;;;5247879;28;9872;-71
2023/04/17 13:06:05;;;;;;;;;7.50;6.75;;;;;;;;5247718;28;8803;-71
2023/04/17 13:08:36;;;;;;;;;3.50;3.50;;;;;;;;5247391;28;8892;-71
2023/04/17 13:11:07;;;;;;;;;2.00;2.00;;;;;;;;5232956;28;8813;-70
2023/04/17 13:13:38;;;;;;;;;4.00;3.00;;;;;;;;5226705;28;9497;-71
2023/04/17 13:16:09;;;;;;;;;3.00;3.00;;;;;;;;5225526;28;8790;-70
2023/04/17 13:18:40;;;;;;;;;7.75;7.75;;;;;;;;5225256;28;11400;-70
2023/04/17 13:21:11;;;;;;;;;2.00;2.00;;;;;;;;5244102;28;8807;-71
2023/04/17 13:23:41;;;;;;;;;7.00;7.00;;;;;;;;5229032;28;9144;-70
2023/04/17 13:26:12;;;;;;;;;6.00;6.00;;;;;;;;5227879;28;8936;-71
2023/04/17 13:28:43;;;;;;;;;4.00;4.00;;;;;;;;5232032;28;8817;-71
2023/04/17 13:31:14;;;;;;;;;2.50;2.50;;;;;;;;5224859;28;8810;-70
2023/04/17 13:33:45;;;;;;;;;5.75;5.00;;;;;;;;5224842;28;8836;-70
2023/04/17 13:36:17;;;;;;;;;4.33;4.33;;;;;;;;5224923;28;8797;-71
2023/04/17 13:39:06;;;;;;;;;5.00;5.00;;;;;;;;5226518;28;11380;-71
2023/04/17 13:41:56;;;;;;;;;2.00;2.00;;;;;;;;5240951;28;8886;-72
2023/04/17 13:44:28;;;;;;;;;5.00;5.00;;;;;;;;5209337;28;9504;-71
2023/04/17 13:46:59;;;;;;;;;3.00;3.00;;;;;;;;5242428;28;8798;-71
2023/04/17 13:49:30;;;;;;;;;4.50;4.50;;;;;;;;5227096;28;8810;-70
2023/04/17 13:52:19;;;;;;;;;4.00;4.00;;;;;;;;5225261;28;8824;-71
2023/04/17 13:54:50;;;;;;;;;3.00;3.00;;;;;;;;5191465;28;8844;-70
2023/04/17 13:57:21;;;;;;;;;2.50;2.50;;;;;;;;5222562;28;8823;-71
2023/04/17 14:00:11;;;;;;;;;5.00;4.25;;;;;;;;5233284;28;8795;-71
2023/04/17 14:02:42;;;;;;;;;8.00;8.00;;;;;;;;5243664;28;8819;-71
2023/04/17 14:05:13;;;;;;;;;5.00;5.00;;;;;;;;5242901;28;8885;-71
2023/04/17 14:07:44;;;;;;;;;6.33;6.33;;;;;;;;5230330;28;10812;-71
2023/04/17 14:10:14;;;;;;;;;12.00;12.00;;;;;;;;5243983;28;11578;-71
2023/04/17 14:12:45;;;;;;;;;6.33;6.33;;;;;;;;5244467;28;8799;-71
2023/04/17 14:15:17;;;;;;;;;3.00;3.00;;;;;;;;5226652;28;11164;-71
2023/04/17 14:17:48;;;;;;;;;4.00;4.00;;;;;;;;5243256;28;8803;-71
2023/04/17 14:20:19;;;;;;;;;12.60;12.60;;;;;;;;5222711;28;9584;-71
2023/04/17 14:22:53;;;;;;;;;22.40;22.40;;;;;;;;5222392;28;9520;-70
2023/04/17 14:25:24;;;;;;;;;11.25;11.25;;;;;;;;5237004;28;8795;-71
2023/04/17 14:27:55;;;;;;;;;13.20;13.20;;;;;;;;5243060;28;8783;-71
2023/04/17 14:30:25;;;;;;;;;11.00;11.00;;;;;;;;5243615;28;8799;-70
2023/04/17 14:32:56;;;;;;;;;13.50;13.50;;;;;;;;5243190;28;11472;-70
2023/04/17 14:35:28;;;;;;;;;15.00;15.00;;;;;;;;5234030;28;8987;-71
2023/04/17 14:37:59;;;;;;;;;16.60;16.60;;;;;;;;5234726;28;9507;-72
2023/04/17 14:40:30;;;;;;;;;13.25;13.00;;;;;;;;5242211;28;8860;-71
2023/04/17 14:43:01;;;;;;;;;8.00;8.00;;;;;;;;5220274;28;8951;-71
2023/04/17 14:45:35;;;;;;;;;12.00;11.25;;;;;;;;5222432;28;8870;-71
2023/04/17 14:48:06;;;;;;;;;10.00;10.00;;;;;;;;5222340;28;9563;-71
2023/04/17 14:50:37;;;;;;;;;9.25;9.00;;;;;;;;5222196;28;8833;-71
2023/04/17 14:53:08;;;;;;;;;9.00;9.00;;;;;;;;5222341;28;8801;-72
2023/04/17 14:55:39;;;;;;;;;10.33;10.00;;;;;;;;5229517;28;9612;-72
2023/04/17 14:58:10;;;;;;;;;10.40;10.40;;;;;;;;5236059;28;11541;-71
2023/04/17 15:00:41;;;;;;;;;7.50;7.00;;;;;;;;5225663;28;9559;-70
2023/04/17 15:03:12;;;;;;;;;13.00;13.00;;;;;;;;5207656;28;8822;-71
2023/04/17 15:05:45;;;;;;;;;9.75;9.25;;;;;;;;5225457;28;8812;-71
2023/04/17 15:08:15;;;;;;;;;9.50;9.50;;;;;;;;5226786;28;8775;-72
2023/04/17 15:10:47;;;;;;;;;4.00;4.00;;;;;;;;5245926;28;8795;-71
2023/04/17 15:13:18;;;;;;;;;8.00;8.00;;;;;;;;5211687;28;8817;-71
2023/04/17 15:15:49;;;;;;;;;5.00;5.00;;;;;;;;5227918;28;9540;-72
2023/04/17 15:18:19;;;;;;;;;7.75;7.75;;;;;;;;5230002;28;11592;-72
2023/04/17 15:20:50;;;;;;;;;8.00;8.00;;;;;;;;5229190;28;8824;-72
2023/04/17 15:23:22;;;;;;;;;14.80;14.80;;;;;;;;5211373;28;8824;-72
2023/04/17 15:25:54;;;;;;;;;18.00;17.60;;;;;;;;5238936;28;8818;-72
2023/04/17 15:28:25;;;;;;;;;17.00;17.00;;;;;;;;5215096;28;8787;-72
2023/04/17 15:30:57;;;;;;;;;15.20;15.20;;;;;;;;5244297;28;9594;-71
2023/04/17 15:33:28;;;;;;;;;14.50;12.75;;;;;;;;5249112;28;8955;-70